sensor_id;sensor_type;location;lat;lon;timestamp;pressure;altitude;pressure_sealevel;temperature;humidity
59337;BME280;45115;52.002;4.686;2022-08-06T00:02:18;102629.09;;;10.74;100.00
59337;BME280;45115;52.002;4.686;2022-08-06T00:04:47;102618.56;;;10.67;100.00
59337;BME280;45115;52.002;4.686;2022-08-06T00:07:13;102626.06;;;10.70;100.00
59337;BME280;45115;52.002;4.686;2022-08-06T00:09:40;102624.97;;;10.78;100.00
59337;BME280;45115;52.002;4.686;2022-08-06T00:12:09;102641.16;;;10.88;100.00
59337;BME280;45115;52.002;4.686;2022-08-06T00:14:38;102636.13;;;10.99;100.00
59337;BME280;45115;52.002;4.686;2022-08-06T00:17:05;102642.84;;;11.01;100.00
59337;BME280;45115;52.002;4.686;2022-08-06T00:19:32;102635.88;;;11.00;100.00
59337;BME280;45115;52.002;4.686;2022-08-06T00:22:00;102627.28;;;10.86;100.00
59337;BME280;45115;52.002;4.686;2022-08-06T00:24:27;102646.84;;;10.92;100.00
59337;BME280;45115;52.002;4.686;2022-08-06T00:26:54;102635.78;;;10.76;100.00
59337;BME280;45115;52.002;4.686;2022-08-06T00:29:20;102643.41;;;10.73;100.00
59337;BME280;45115;52.002;4.686;2022-08-06T00:31:47;102638.38;;;10.65;100.00
59337;BME280;45115;52.002;4.686;2022-08-06T00:34:14;102628.53;;;10.53;100.00
59337;BME280;45115;52.002;4.686;2022-08-06T00:36:41;102647.59;;;10.62;100.00
59337;BME280;45115;52.002;4.686;2022-08-06T00:39:09;102657.44;;;10.61;100.00
59337;BME280;45115;52.002;4.686;2022-08-06T00:41:36;102664.78;;;10.59;100.00
59337;BME280;45115;52.002;4.686;2022-08-06T00:44:04;102658.91;;;10.57;100.00
59337;BME280;45115;52.002;4.686;2022-08-06T00:46:31;102664.22;;;10.57;100.00
59337;BME280;45115;52.002;4.686;2022-08-06T00:48:57;102653.22;;;10.54;100.00
59337;BME280;45115;52.002;4.686;2022-08-06T00:51:24;102656.69;;;10.54;100.00
59337;BME280;45115;52.002;4.686;2022-08-06T00:53:51;102662.34;;;10.58;100.00
59337;BME280;45115;52.002;4.686;2022-08-06T00:56:20;102650.19;;;10.50;100.00
59337;BME280;45115;52.002;4.686;2022-08-06T00:58:46;102663.38;;;10.57;100.00
59337;BME280;45115;52.002;4.686;2022-08-06T01:01:13;102668.63;;;10.63;100.00
59337;BME280;45115;52.002;4.686;2022-08-06T01:03:40;102663.16;;;10.58;100.00
59337;BME280;45115;52.002;4.686;2022-08-06T01:06:07;102667.22;;;10.61;100.00
59337;BME280;45115;52.002;4.686;2022-08-06T01:08:34;102667.28;;;10.54;100.00
59337;BME280;45115;52.002;4.686;2022-08-06T01:11:00;102656.75;;;10.47;100.00
59337;BME280;45115;52.002;4.686;2022-08-06T01:13:28;102671.19;;;10.52;100.00
59337;BME280;45115;52.002;4.686;2022-08-06T01:16:05;102681.81;;;10.52;100.00
59337;BME280;45115;52.002;4.686;2022-08-06T01:18:40;102677.75;;;10.49;100.00
59337;BME280;45115;52.002;4.686;2022-08-06T01:21:17;102660.31;;;10.34;100.00
59337;BME280;45115;52.002;4.686;2022-08-06T01:24:02;102664.31;;;10.25;100.00
59337;BME280;45115;52.002;4.686;2022-08-06T01:26:40;102668.38;;;10.28;100.00
59337;BME280;45115;52.002;4.686;2022-08-06T01:29:15;102680.41;;;10.30;100.00
59337;BME280;45115;52.002;4.686;2022-08-06T01:31:48;102677.34;;;10.27;100.00
59337;BME280;45115;52.002;4.686;2022-08-06T01:34:22;102679.06;;;10.21;100.00
59337;BME280;45115;52.002;4.686;2022-08-06T01:37:07;102672.19;;;10.13;100.00
59337;BME280;45115;52.002;4.686;2022-08-06T01:39:48;102656.06;;;10.15;100.00
59337;BME280;45115;52.002;4.686;2022-08-06T01:42:21;102685.31;;;10.27;100.00
59337;BME280;45115;52.002;4.686;2022-08-06T01:44:52;102685.81;;;10.17;100.00
59337;BME280;45115;52.002;4.686;2022-08-06T01:47:23;102682.47;;;10.03;100.00
59337;BME280;45115;52.002;4.686;2022-08-06T01:49:55;102690.38;;;10.09;100.00
59337;BME280;45115;52.002;4.686;2022-08-06T01:52:23;102674.38;;;9.97;100.00
59337;BME280;45115;52.002;4.686;2022-08-06T01:54:51;102670.31;;;9.95;100.00
59337;BME280;45115;52.002;4.686;2022-08-06T01:57:21;102686.16;;;10.02;100.00
59337;BME280;45115;52.002;4.686;2022-08-06T01:59:52;102676.84;;;9.92;100.00
59337;BME280;45115;52.002;4.686;2022-08-06T02:02:21;102687.25;;;9.94;100.00
59337;BME280;45115;52.002;4.686;2022-08-06T02:04:51;102687.25;;;9.94;100.00
59337;BME280;45115;52.002;4.686;2022-08-06T02:07:21;102675.88;;;9.87;100.00
59337;BME280;45115;52.002;4.686;2022-08-06T02:09:50;102680.59;;;9.84;100.00
59337;BME280;45115;52.002;4.686;2022-08-06T02:12:21;102678.81;;;9.78;100.00
59337;BME280;45115;52.002;4.686;2022-08-06T02:14:53;102665.03;;;9.69;100.00
59337;BME280;45115;52.002;4.686;2022-08-06T02:17:23;102682.91;;;9.74;100.00
59337;BME280;45115;52.002;4.686;2022-08-06T02:19:52;102685.56;;;9.74;100.00
59337;BME280;45115;52.002;4.686;2022-08-06T02:22:21;102670.56;;;9.61;100.00
59337;BME280;45115;52.002;4.686;2022-08-06T02:24:49;102671.78;;;9.65;100.00
59337;BME280;45115;52.002;4.686;2022-08-06T02:27:17;102680.94;;;9.69;100.00
59337;BME280;45115;52.002;4.686;2022-08-06T02:29:45;102678.09;;;9.64;100.00
59337;BME280;45115;52.002;4.686;2022-08-06T02:32:15;102668.41;;;9.51;100.00
59337;BME280;45115;52.002;4.686;2022-08-06T02:34:43;102693.59;;;9.61;100.00
59337;BME280;45115;52.002;4.686;2022-08-06T02:37:13;102694.44;;;9.61;100.00
59337;BME280;45115;52.002;4.686;2022-08-06T02:39:46;102687.34;;;9.55;100.00
59337;BME280;45115;52.002;4.686;2022-08-06T02:42:19;102676.78;;;9.48;100.00
59337;BME280;45115;52.002;4.686;2022-08-06T02:44:53;102699.34;;;9.57;100.00
59337;BME280;45115;52.002;4.686;2022-08-06T02:47:32;102691.22;;;9.52;100.00
59337;BME280;45115;52.002;4.686;2022-08-06T02:50:03;102688.19;;;9.49;100.00
59337;BME280;45115;52.002;4.686;2022-08-06T02:52:35;102689.16;;;9.54;100.00
59337;BME280;45115;52.002;4.686;2022-08-06T02:55:09;102683.44;;;9.57;100.00
59337;BME280;45115;52.002;4.686;2022-08-06T02:57:38;102700.72;;;9.67;100.00
59337;BME280;45115;52.002;4.686;2022-08-06T03:00:08;102694.59;;;9.66;100.00
59337;BME280;45115;52.002;4.686;2022-08-06T03:02:38;102703.38;;;9.67;100.00
59337;BME280;45115;52.002;4.686;2022-08-06T03:05:07;102710.50;;;9.66;100.00
59337;BME280;45115;52.002;4.686;2022-08-06T03:07:36;102701.56;;;9.61;100.00
59337;BME280;45115;52.002;4.686;2022-08-06T03:10:06;102691.03;;;9.54;100.00
59337;BME280;45115;52.002;4.686;2022-08-06T03:12:35;102696.91;;;9.56;100.00
59337;BME280;45115;52.002;4.686;2022-08-06T03:15:05;102699.94;;;9.60;100.00
59337;BME280;45115;52.002;4.686;2022-08-06T03:17:37;102682.50;;;9.45;100.00
59337;BME280;45115;52.002;4.686;2022-08-06T03:20:07;102693.25;;;9.50;100.00
59337;BME280;45115;52.002;4.686;2022-08-06T03:22:36;102691.47;;;9.44;100.00
59337;BME280;45115;52.002;4.686;2022-08-06T03:25:06;102709.97;;;9.51;100.00
59337;BME280;45115;52.002;4.686;2022-08-06T03:27:33;102692.53;;;9.36;100.00
59337;BME280;45115;52.002;4.686;2022-08-06T03:30:03;102699.88;;;9.41;100.00
59337;BME280;45115;52.002;4.686;2022-08-06T03:32:30;102708.59;;;9.41;100.00
59337;BME280;45115;52.002;4.686;2022-08-06T03:34:59;102698.69;;;9.30;100.00
59337;BME280;45115;52.002;4.686;2022-08-06T03:37:26;102705.63;;;9.24;100.00
59337;BME280;45115;52.002;4.686;2022-08-06T03:39:54;102709.50;;;9.28;100.00
59337;BME280;45115;52.002;4.686;2022-08-06T03:42:23;102726.34;;;9.41;100.00
59337;BME280;45115;52.002;4.686;2022-08-06T03:44:49;102705.56;;;9.38;100.00
59337;BME280;45115;52.002;4.686;2022-08-06T03:47:21;102706.31;;;9.52;100.00
59337;BME280;45115;52.002;4.686;2022-08-06T03:49:56;102711.97;;;9.55;100.00
59337;BME280;45115;52.002;4.686;2022-08-06T03:52:29;102727.47;;;9.59;100.00
59337;BME280;45115;52.002;4.686;2022-08-06T03:55:02;102702.44;;;9.48;100.00
59337;BME280;45115;52.002;4.686;2022-08-06T03:57:32;102711.81;;;9.50;100.00
59337;BME280;45115;52.002;4.686;2022-08-06T04:00:01;102710.75;;;9.58;100.00
59337;BME280;45115;52.002;4.686;2022-08-06T04:02:39;102714.22;;;9.59;100.00
59337;BME280;45115;52.002;4.686;2022-08-06T04:05:07;102725.84;;;9.57;100.00
59337;BME280;45115;52.002;4.686;2022-08-06T04:07:38;102735.59;;;9.64;100.00
59337;BME280;45115;52.002;4.686;2022-08-06T04:10:07;102724.16;;;9.63;100.00
59337;BME280;45115;52.002;4.686;2022-08-06T04:12:34;102737.53;;;9.75;100.00
59337;BME280;45115;52.002;4.686;2022-08-06T04:15:02;102717.78;;;9.71;100.00
59337;BME280;45115;52.002;4.686;2022-08-06T04:17:31;102726.25;;;9.87;100.00
59337;BME280;45115;52.002;4.686;2022-08-06T04:19:59;102726.56;;;9.97;100.00
59337;BME280;45115;52.002;4.686;2022-08-06T04:22:27;102732.72;;;10.16;100.00
59337;BME280;45115;52.002;4.686;2022-08-06T04:24:55;102732.66;;;10.04;100.00
59337;BME280;45115;52.002;4.686;2022-08-06T04:27:23;102719.41;;;10.04;100.00
59337;BME280;45115;52.002;4.686;2022-08-06T04:29:52;102742.56;;;10.16;100.00
59337;BME280;45115;52.002;4.686;2022-08-06T04:32:22;102732.03;;;10.02;100.00
59337;BME280;45115;52.002;4.686;2022-08-06T04:34:50;102726.03;;;9.88;100.00
59337;BME280;45115;52.002;4.686;2022-08-06T04:37:18;102734.81;;;9.89;100.00
59337;BME280;45115;52.002;4.686;2022-08-06T04:39:45;102729.94;;;9.86;100.00
59337;BME280;45115;52.002;4.686;2022-08-06T04:42:13;102749.19;;;10.00;100.00
59337;BME280;45115;52.002;4.686;2022-08-06T04:44:40;102733.56;;;9.91;100.00
59337;BME280;45115;52.002;4.686;2022-08-06T04:47:08;102736.97;;;9.99;100.00
59337;BME280;45115;52.002;4.686;2022-08-06T04:49:35;102743.69;;;10.01;100.00
59337;BME280;45115;52.002;4.686;2022-08-06T04:52:02;102746.34;;;10.01;100.00
59337;BME280;45115;52.002;4.686;2022-08-06T04:54:28;102757.09;;;10.06;100.00
59337;BME280;45115;52.002;4.686;2022-08-06T04:56:56;102739.03;;;9.96;100.00
59337;BME280;45115;52.002;4.686;2022-08-06T04:59:24;102756.28;;;10.06;100.00
59337;BME280;45115;52.002;4.686;2022-08-06T05:01:51;102764.19;;;10.13;100.00
59337;BME280;45115;52.002;4.686;2022-08-06T05:04:17;102764.34;;;10.18;100.00
59337;BME280;45115;52.002;4.686;2022-08-06T05:06:47;102752.59;;;10.32;100.00
59337;BME280;45115;52.002;4.686;2022-08-06T05:09:17;102764.69;;;10.54;100.00
59337;BME280;45115;52.002;4.686;2022-08-06T05:11:48;102769.50;;;10.63;100.00
59337;BME280;45115;52.002;4.686;2022-08-06T05:14:22;102751.59;;;10.59;100.00
59337;BME280;45115;52.002;4.686;2022-08-06T05:16:54;102771.78;;;10.79;100.00
59337;BME280;45115;52.002;4.686;2022-08-06T05:19:25;102766.25;;;10.80;100.00
59337;BME280;45115;52.002;4.686;2022-08-06T05:21:55;102780.56;;;10.98;100.00
59337;BME280;45115;52.002;4.686;2022-08-06T05:24:24;102782.25;;;11.11;100.00
59337;BME280;45115;52.002;4.686;2022-08-06T05:26:51;102767.63;;;11.20;100.00
59337;BME280;45115;52.002;4.686;2022-08-06T05:29:19;102791.81;;;11.61;100.00
59337;BME280;45115;52.002;4.686;2022-08-06T05:31:46;102789.81;;;11.87;100.00
59337;BME280;45115;52.002;4.686;2022-08-06T05:34:15;102788.22;;;11.98;100.00
59337;BME280;45115;52.002;4.686;2022-08-06T05:36:42;102804.31;;;13.40;100.00
59337;BME280;45115;52.002;4.686;2022-08-06T05:39:09;102794.22;;;14.40;100.00
59337;BME280;45115;52.002;4.686;2022-08-06T05:41:36;102796.72;;;14.64;100.00
59337;BME280;45115;52.002;4.686;2022-08-06T05:44:03;102798.94;;;14.32;98.57
59337;BME280;45115;52.002;4.686;2022-08-06T05:46:34;102819.59;;;14.03;98.20
59337;BME280;45115;52.002;4.686;2022-08-06T05:49:05;102821.31;;;13.80;98.11
59337;BME280;45115;52.002;4.686;2022-08-06T05:51:38;102815.97;;;13.63;98.05
59337;BME280;45115;52.002;4.686;2022-08-06T05:54:12;102815.28;;;13.55;98.38
59337;BME280;45115;52.002;4.686;2022-08-06T05:56:43;102799.47;;;13.49;98.11
59337;BME280;45115;52.002;4.686;2022-08-06T05:59:12;102819.13;;;13.60;98.04
59337;BME280;45115;52.002;4.686;2022-08-06T06:01:42;102823.03;;;13.69;97.78
59337;BME280;45115;52.002;4.686;2022-08-06T06:04:10;102822.44;;;14.30;97.21
59337;BME280;45115;52.002;4.686;2022-08-06T06:06:40;102828.31;;;15.61;92.37
59337;BME280;45115;52.002;4.686;2022-08-06T06:09:07;102842.78;;;17.12;85.66
59337;BME280;45115;52.002;4.686;2022-08-06T06:11:34;102840.78;;;18.28;81.00
59337;BME280;45115;52.002;4.686;2022-08-06T06:14:01;102845.78;;;18.77;75.31
59337;BME280;45115;52.002;4.686;2022-08-06T06:16:31;102853.44;;;19.65;71.04
59337;BME280;45115;52.002;4.686;2022-08-06T06:19:09;102853.34;;;20.64;68.06
59337;BME280;45115;52.002;4.686;2022-08-06T06:21:47;102857.25;;;21.40;61.77
59337;BME280;45115;52.002;4.686;2022-08-06T06:24:18;102862.50;;;21.89;60.63
59337;BME280;45115;52.002;4.686;2022-08-06T06:26:52;102859.72;;;21.56;60.34
59337;BME280;45115;52.002;4.686;2022-08-06T06:29:33;102860.22;;;20.76;61.14
59337;BME280;45115;52.002;4.686;2022-08-06T06:32:05;102859.63;;;19.95;63.84
59337;BME280;45115;52.002;4.686;2022-08-06T06:34:42;102860.13;;;19.68;64.05
59337;BME280;45115;52.002;4.686;2022-08-06T06:37:19;102851.56;;;19.60;65.48
59337;BME280;45115;52.002;4.686;2022-08-06T06:39:57;102851.06;;;19.53;66.01
59337;BME280;45115;52.002;4.686;2022-08-06T06:42:32;102853.72;;;19.58;66.08
59337;BME280;45115;52.002;4.686;2022-08-06T06:45:05;102857.97;;;19.24;66.48
59337;BME280;45115;52.002;4.686;2022-08-06T06:47:43;102859.25;;;19.37;66.02
59337;BME280;45115;52.002;4.686;2022-08-06T06:50:16;102864.00;;;19.86;65.15
59337;BME280;45115;52.002;4.686;2022-08-06T06:52:48;102865.81;;;20.01;63.14
59337;BME280;45115;52.002;4.686;2022-08-06T06:55:21;102873.09;;;19.95;61.02
59337;BME280;45115;52.002;4.686;2022-08-06T06:57:53;102868.81;;;19.94;61.29
59337;BME280;45115;52.002;4.686;2022-08-06T07:00:21;102859.47;;;19.81;61.22
59337;BME280;45115;52.002;4.686;2022-08-06T07:02:50;102865.16;;;20.14;61.55
59337;BME280;45115;52.002;4.686;2022-08-06T07:05:19;102858.34;;;20.76;56.95
59337;BME280;45115;52.002;4.686;2022-08-06T07:07:48;102865.66;;;21.58;54.22
59337;BME280;45115;52.002;4.686;2022-08-06T07:10:17;102864.56;;;21.40;51.86
59337;BME280;45115;52.002;4.686;2022-08-06T07:12:46;102870.72;;;20.77;52.46
59337;BME280;45115;52.002;4.686;2022-08-06T07:15:15;102865.41;;;20.48;55.46
59337;BME280;45115;52.002;4.686;2022-08-06T07:17:44;102874.22;;;20.53;53.83
59337;BME280;45115;52.002;4.686;2022-08-06T07:20:13;102873.44;;;20.77;52.34
59337;BME280;45115;52.002;4.686;2022-08-06T07:22:43;102880.53;;;21.55;51.60
59337;BME280;45115;52.002;4.686;2022-08-06T07:25:13;102888.72;;;22.02;49.84
59337;BME280;45115;52.002;4.686;2022-08-06T07:27:48;102888.16;;;22.67;48.96
59337;BME280;45115;52.002;4.686;2022-08-06T07:30:17;102892.28;;;22.78;49.74
59337;BME280;45115;52.002;4.686;2022-08-06T07:32:45;102893.16;;;22.88;48.07
59337;BME280;45115;52.002;4.686;2022-08-06T07:35:14;102885.16;;;22.68;48.68
59337;BME280;45115;52.002;4.686;2022-08-06T07:37:48;102895.38;;;22.58;46.95
59337;BME280;45115;52.002;4.686;2022-08-06T07:40:22;102889.06;;;22.76;47.78
59337;BME280;45115;52.002;4.686;2022-08-06T07:42:54;102882.41;;;22.26;48.54
59337;BME280;45115;52.002;4.686;2022-08-06T07:45:23;102879.16;;;22.72;47.50
59337;BME280;45115;52.002;4.686;2022-08-06T07:47:51;102884.75;;;22.75;46.46
59337;BME280;45115;52.002;4.686;2022-08-06T07:50:20;102887.72;;;22.88;46.24
59337;BME280;45115;52.002;4.686;2022-08-06T07:52:48;102895.88;;;22.60;48.12
59337;BME280;45115;52.002;4.686;2022-08-06T07:55:16;102889.72;;;23.10;45.74
59337;BME280;45115;52.002;4.686;2022-08-06T07:57:44;102898.81;;;23.88;44.47
59337;BME280;45115;52.002;4.686;2022-08-06T08:00:19;102899.22;;;24.27;44.19
59337;BME280;45115;52.002;4.686;2022-08-06T08:02:49;102894.81;;;23.85;44.94
59337;BME280;45115;52.002;4.686;2022-08-06T08:05:31;102901.56;;;24.20;44.24
59337;BME280;45115;52.002;4.686;2022-08-06T08:08:15;102901.25;;;24.21;43.26
59337;BME280;45115;52.002;4.686;2022-08-06T08:10:44;102904.13;;;23.33;44.95
59337;BME280;45115;52.002;4.686;2022-08-06T08:13:11;102913.63;;;23.45;43.80
59337;BME280;45115;52.002;4.686;2022-08-06T08:15:38;102914.38;;;23.82;41.69
59337;BME280;45115;52.002;4.686;2022-08-06T08:18:36;102911.16;;;22.50;43.19
59337;BME280;45115;52.002;4.686;2022-08-06T08:21:13;102908.06;;;22.10;46.82
59337;BME280;45115;52.002;4.686;2022-08-06T08:23:41;102911.63;;;22.38;45.75
59337;BME280;45115;52.002;4.686;2022-08-06T08:26:11;102907.44;;;22.46;46.01
59337;BME280;45115;52.002;4.686;2022-08-06T08:28:38;102913.97;;;23.15;44.32
59337;BME280;45115;52.002;4.686;2022-08-06T08:31:05;102909.66;;;22.44;45.20
59337;BME280;45115;52.002;4.686;2022-08-06T08:33:34;102914.75;;;23.44;41.75
59337;BME280;45115;52.002;4.686;2022-08-06T08:36:01;102909.28;;;23.81;41.56
59337;BME280;45115;52.002;4.686;2022-08-06T08:38:29;102913.47;;;23.64;42.37
59337;BME280;45115;52.002;4.686;2022-08-06T08:40:59;102904.50;;;23.41;43.35
59337;BME280;45115;52.002;4.686;2022-08-06T08:43:30;102904.31;;;23.37;42.53
59337;BME280;45115;52.002;4.686;2022-08-06T08:45:58;102902.63;;;22.29;44.18
59337;BME280;45115;52.002;4.686;2022-08-06T08:48:29;102907.09;;;21.67;45.98
59337;BME280;45115;52.002;4.686;2022-08-06T08:50:58;102898.53;;;21.98;44.85
59337;BME280;45115;52.002;4.686;2022-08-06T08:53:32;102915.41;;;22.85;41.90
59337;BME280;45115;52.002;4.686;2022-08-06T08:56:01;102909.63;;;23.42;41.13
59337;BME280;45115;52.002;4.686;2022-08-06T08:58:29;102906.72;;;24.30;39.95
59337;BME280;45115;52.002;4.686;2022-08-06T09:01:04;102900.91;;;25.04;38.86
59337;BME280;45115;52.002;4.686;2022-08-06T09:03:33;102914.63;;;24.90;38.29
59337;BME280;45115;52.002;4.686;2022-08-06T09:06:01;102910.88;;;24.68;40.66
59337;BME280;45115;52.002;4.686;2022-08-06T09:08:28;102920.72;;;25.13;39.11
59337;BME280;45115;52.002;4.686;2022-08-06T09:10:55;102906.28;;;24.77;38.69
59337;BME280;45115;52.002;4.686;2022-08-06T09:13:23;102900.75;;;25.00;38.45
59337;BME280;45115;52.002;4.686;2022-08-06T09:15:52;102901.16;;;24.76;38.76
59337;BME280;45115;52.002;4.686;2022-08-06T09:18:19;102908.19;;;24.36;40.24
59337;BME280;45115;52.002;4.686;2022-08-06T09:20:46;102913.22;;;23.97;41.32
59337;BME280;45115;52.002;4.686;2022-08-06T09:23:14;102922.31;;;24.56;38.46
59337;BME280;45115;52.002;4.686;2022-08-06T09:25:43;102920.44;;;23.79;40.37
59337;BME280;45115;52.002;4.686;2022-08-06T09:28:11;102920.69;;;23.69;40.68
59337;BME280;45115;52.002;4.686;2022-08-06T09:30:38;102924.47;;;23.45;40.82
59337;BME280;45115;52.002;4.686;2022-08-06T09:33:12;102915.16;;;23.37;40.78
59337;BME280;45115;52.002;4.686;2022-08-06T09:35:40;102912.69;;;23.64;40.66
59337;BME280;45115;52.002;4.686;2022-08-06T09:38:07;102925.28;;;23.91;39.24
59337;BME280;45115;52.002;4.686;2022-08-06T09:40:35;102919.88;;;23.91;39.79
59337;BME280;45115;52.002;4.686;2022-08-06T09:43:02;102913.28;;;24.06;38.50
59337;BME280;45115;52.002;4.686;2022-08-06T09:45:28;102911.41;;;24.38;38.24
59337;BME280;45115;52.002;4.686;2022-08-06T09:48:03;102914.06;;;25.46;37.76
59337;BME280;45115;52.002;4.686;2022-08-06T09:50:43;102911.31;;;25.72;35.09
59337;BME280;45115;52.002;4.686;2022-08-06T09:53:11;102918.59;;;24.84;36.63
59337;BME280;45115;52.002;4.686;2022-08-06T09:55:38;102918.16;;;24.90;37.20
59337;BME280;45115;52.002;4.686;2022-08-06T09:58:06;102918.53;;;25.42;37.45
59337;BME280;45115;52.002;4.686;2022-08-06T10:00:34;102915.44;;;25.08;36.52
59337;BME280;45115;52.002;4.686;2022-08-06T10:03:02;102902.97;;;24.49;36.23
59337;BME280;45115;52.002;4.686;2022-08-06T10:05:32;102907.16;;;24.00;37.76
59337;BME280;45115;52.002;4.686;2022-08-06T10:08:09;102906.84;;;24.57;39.02
59337;BME280;45115;52.002;4.686;2022-08-06T10:10:46;102906.13;;;23.28;39.29
59337;BME280;45115;52.002;4.686;2022-08-06T10:13:17;102904.53;;;21.95;42.86
59337;BME280;45115;52.002;4.686;2022-08-06T10:15:45;102907.03;;;21.53;42.04
59337;BME280;45115;52.002;4.686;2022-08-06T10:18:34;102913.84;;;21.07;43.43
59337;BME280;45115;52.002;4.686;2022-08-06T10:21:03;102917.97;;;21.43;42.57
59337;BME280;45115;52.002;4.686;2022-08-06T10:23:33;102918.41;;;22.69;42.10
59337;BME280;45115;52.002;4.686;2022-08-06T10:26:03;102919.81;;;23.82;38.99
59337;BME280;45115;52.002;4.686;2022-08-06T10:28:33;102928.00;;;23.91;37.40
59337;BME280;45115;52.002;4.686;2022-08-06T10:31:02;102921.09;;;24.71;37.09
59337;BME280;45115;52.002;4.686;2022-08-06T10:33:32;102918.00;;;24.96;35.89
59337;BME280;45115;52.002;4.686;2022-08-06T10:36:03;102917.38;;;24.58;36.61
59337;BME280;45115;52.002;4.686;2022-08-06T10:38:34;102908.63;;;23.24;40.06
59337;BME280;45115;52.002;4.686;2022-08-06T10:41:06;102910.78;;;22.85;39.37
59337;BME280;45115;52.002;4.686;2022-08-06T10:43:34;102918.16;;;22.37;41.97
59337;BME280;45115;52.002;4.686;2022-08-06T10:46:04;102904.78;;;21.80;43.40
59337;BME280;45115;52.002;4.686;2022-08-06T10:48:31;102914.00;;;22.12;42.74
59337;BME280;45115;52.002;4.686;2022-08-06T10:50:59;102912.59;;;22.90;41.07
59337;BME280;45115;52.002;4.686;2022-08-06T10:53:26;102905.38;;;23.73;37.27
59337;BME280;45115;52.002;4.686;2022-08-06T10:55:54;102899.72;;;24.06;34.28
59337;BME280;45115;52.002;4.686;2022-08-06T10:58:22;102906.34;;;24.54;34.24
59337;BME280;45115;52.002;4.686;2022-08-06T11:00:50;102912.91;;;24.22;35.09
59337;BME280;45115;52.002;4.686;2022-08-06T11:03:22;102910.56;;;24.78;32.53
59337;BME280;45115;52.002;4.686;2022-08-06T11:05:59;102905.63;;;24.80;34.46
59337;BME280;45115;52.002;4.686;2022-08-06T11:08:49;102906.97;;;25.89;33.13
59337;BME280;45115;52.002;4.686;2022-08-06T11:11:32;102900.53;;;24.38;36.69
59337;BME280;45115;52.002;4.686;2022-08-06T11:14:08;102900.09;;;23.91;36.22
59337;BME280;45115;52.002;4.686;2022-08-06T11:16:36;102893.47;;;22.72;36.84
59337;BME280;45115;52.002;4.686;2022-08-06T11:19:06;102891.91;;;22.24;41.03
59337;BME280;45115;52.002;4.686;2022-08-06T11:21:41;102895.53;;;23.03;38.11
59337;BME280;45115;52.002;4.686;2022-08-06T11:24:09;102897.47;;;23.77;35.69
59337;BME280;45115;52.002;4.686;2022-08-06T11:26:40;102897.53;;;24.08;34.58
59337;BME280;45115;52.002;4.686;2022-08-06T11:29:08;102896.44;;;24.90;33.49
59337;BME280;45115;52.002;4.686;2022-08-06T11:31:37;102891.78;;;24.91;34.01
59337;BME280;45115;52.002;4.686;2022-08-06T11:34:09;102895.38;;;24.68;35.31
59337;BME280;45115;52.002;4.686;2022-08-06T11:36:47;102888.13;;;24.14;33.62
59337;BME280;45115;52.002;4.686;2022-08-06T11:39:15;102881.34;;;23.71;35.80
59337;BME280;45115;52.002;4.686;2022-08-06T11:41:56;102886.06;;;22.78;36.26
59337;BME280;45115;52.002;4.686;2022-08-06T11:44:29;102889.75;;;22.54;36.87
59337;BME280;45115;52.002;4.686;2022-08-06T11:47:11;102872.34;;;23.39;36.22
59337;BME280;45115;52.002;4.686;2022-08-06T11:49:40;102890.28;;;24.26;34.94
59337;BME280;45115;52.002;4.686;2022-08-06T11:52:39;102883.28;;;23.80;35.92
59337;BME280;45115;52.002;4.686;2022-08-06T11:55:08;102882.50;;;23.05;35.54
59337;BME280;45115;52.002;4.686;2022-08-06T11:57:36;102866.59;;;22.62;36.26
59337;BME280;45115;52.002;4.686;2022-08-06T12:00:10;102882.41;;;21.93;40.97
59337;BME280;45115;52.002;4.686;2022-08-06T12:02:50;102876.47;;;22.24;40.14
59337;BME280;45115;52.002;4.686;2022-08-06T12:05:33;102877.00;;;23.47;37.99
59337;BME280;45115;52.002;4.686;2022-08-06T12:08:27;102884.28;;;24.88;35.01
59337;BME280;45115;52.002;4.686;2022-08-06T12:11:23;102885.88;;;25.86;35.29
59337;BME280;45115;52.002;4.686;2022-08-06T12:14:00;102882.91;;;26.26;33.12
59337;BME280;45115;52.002;4.686;2022-08-06T12:16:32;102883.97;;;24.98;33.91
59337;BME280;45115;52.002;4.686;2022-08-06T12:19:00;102880.22;;;24.04;37.79
59337;BME280;45115;52.002;4.686;2022-08-06T12:21:30;102873.50;;;22.96;37.80
59337;BME280;45115;52.002;4.686;2022-08-06T12:23:56;102888.50;;;22.46;39.91
59337;BME280;45115;52.002;4.686;2022-08-06T12:26:24;102865.41;;;21.54;42.88
59337;BME280;45115;52.002;4.686;2022-08-06T12:29:02;102876.16;;;21.79;42.37
59337;BME280;45115;52.002;4.686;2022-08-06T12:31:32;102864.47;;;22.87;40.80
59337;BME280;45115;52.002;4.686;2022-08-06T12:34:00;102870.09;;;24.10;38.34
59337;BME280;45115;52.002;4.686;2022-08-06T12:36:28;102868.25;;;24.77;36.42
59337;BME280;45115;52.002;4.686;2022-08-06T12:38:57;102862.84;;;24.77;35.89
59337;BME280;45115;52.002;4.686;2022-08-06T12:41:39;102866.88;;;24.98;34.83
59337;BME280;45115;52.002;4.686;2022-08-06T12:44:09;102869.91;;;24.87;33.98
59337;BME280;45115;52.002;4.686;2022-08-06T12:46:39;102866.31;;;24.60;36.30
59337;BME280;45115;52.002;4.686;2022-08-06T12:49:07;102859.75;;;24.61;36.57
59337;BME280;45115;52.002;4.686;2022-08-06T12:51:34;102858.44;;;24.50;35.34
59337;BME280;45115;52.002;4.686;2022-08-06T12:54:05;102868.72;;;24.21;34.49
59337;BME280;45115;52.002;4.686;2022-08-06T12:56:33;102864.31;;;24.92;34.51
59337;BME280;45115;52.002;4.686;2022-08-06T12:59:05;102859.22;;;25.26;33.65
59337;BME280;45115;52.002;4.686;2022-08-06T13:01:34;102860.66;;;25.06;34.02
59337;BME280;45115;52.002;4.686;2022-08-06T13:04:06;102858.41;;;24.99;35.00
59337;BME280;45115;52.002;4.686;2022-08-06T13:06:36;102848.47;;;24.27;35.26